De Panne, Belgium
Current Conditions -  °F | °C
As of 11:55 PM on Tuesday 27 Jan 2015 (Local Time) from EBFN Reporting Station
Broken Clouds Broken Clouds  
Wind Chill: 38°   Ceiling: 4000
Heat Index: 43°   Visibility: 6mi
Dew Point: 41°   Wind: 8mph
Humidity: 93%   Direction: 210°SSW
Pressure: 30.18"   Gusts: NA
Location:  51.1°N, 2.59°E
Report Text: EBFN 272255Z 21007KT 9999 FEW022 BKN040 06/05 Q1022 BLU
Loading
Personal Weather Stations






























Interactive Weather Map New forecast layout! Learn more

10-Day Weather Forecast

Advertisements
Track Severe Weather on mobile